sensor_id;sensor_type;location;lat;lon;timestamp;P1;durP1;ratioP1;P2;durP2;ratioP2
46845;SDS011;33947;46.804;134.252;2022-11-15T00:02:56;15.55;;;8.40;;
46845;SDS011;33947;46.804;134.252;2022-11-15T00:06:19;21.73;;;10.75;;
46845;SDS011;33947;46.804;134.252;2022-11-15T00:09:43;12.85;;;7.63;;
46845;SDS011;33947;46.804;134.252;2022-11-15T00:13:06;16.67;;;8.15;;
46845;SDS011;33947;46.804;134.252;2022-11-15T00:16:30;19.63;;;9.43;;
46845;SDS011;33947;46.804;134.252;2022-11-15T00:19:53;18.52;;;7.82;;
46845;SDS011;33947;46.804;134.252;2022-11-15T00:23:16;12.00;;;7.20;;
46845;SDS011;33947;46.804;134.252;2022-11-15T00:26:39;13.35;;;8.00;;
46845;SDS011;33947;46.804;134.252;2022-11-15T00:30:01;23.65;;;11.35;;
46845;SDS011;33947;46.804;134.252;2022-11-15T00:33:24;17.95;;;8.20;;
46845;SDS011;33947;46.804;134.252;2022-11-15T00:36:47;13.13;;;7.22;;
46845;SDS011;33947;46.804;134.252;2022-11-15T00:40:10;22.30;;;10.18;;
46845;SDS011;33947;46.804;134.252;2022-11-15T00:43:34;21.75;;;9.30;;
46845;SDS011;33947;46.804;134.252;2022-11-15T00:46:58;15.50;;;8.73;;
46845;SDS011;33947;46.804;134.252;2022-11-15T00:50:20;13.48;;;7.05;;
46845;SDS011;33947;46.804;134.252;2022-11-15T00:53:43;13.30;;;7.50;;
46845;SDS011;33947;46.804;134.252;2022-11-15T00:57:06;14.38;;;8.50;;
46845;SDS011;33947;46.804;134.252;2022-11-15T01:00:29;20.00;;;9.52;;
46845;SDS011;33947;46.804;134.252;2022-11-15T01:03:52;18.27;;;8.57;;
46845;SDS011;33947;46.804;134.252;2022-11-15T01:07:20;20.58;;;10.25;;
46845;SDS011;33947;46.804;134.252;2022-11-15T01:10:43;25.55;;;11.07;;
46845;SDS011;33947;46.804;134.252;2022-11-15T01:14:06;17.45;;;9.13;;
46845;SDS011;33947;46.804;134.252;2022-11-15T01:17:28;13.00;;;5.75;;
46845;SDS011;33947;46.804;134.252;2022-11-15T01:20:52;16.02;;;9.32;;
46845;SDS011;33947;46.804;134.252;2022-11-15T01:24:16;17.45;;;8.23;;
46845;SDS011;33947;46.804;134.252;2022-11-15T01:27:39;12.35;;;7.20;;
46845;SDS011;33947;46.804;134.252;2022-11-15T01:31:02;22.52;;;8.80;;
46845;SDS011;33947;46.804;134.252;2022-11-15T01:34:27;13.63;;;7.33;;
46845;SDS011;33947;46.804;134.252;2022-11-15T01:37:50;15.57;;;7.85;;
46845;SDS011;33947;46.804;134.252;2022-11-15T01:41:16;12.70;;;6.40;;
46845;SDS011;33947;46.804;134.252;2022-11-15T01:48:08;14.38;;;7.28;;
46845;SDS011;33947;46.804;134.252;2022-11-15T01:51:32;16.58;;;7.55;;
46845;SDS011;33947;46.804;134.252;2022-11-15T01:55:02;15.02;;;8.98;;
46845;SDS011;33947;46.804;134.252;2022-11-15T01:58:25;13.23;;;6.93;;
46845;SDS011;33947;46.804;134.252;2022-11-15T02:01:49;17.08;;;7.57;;
46845;SDS011;33947;46.804;134.252;2022-11-15T02:05:13;18.25;;;7.55;;
46845;SDS011;33947;46.804;134.252;2022-11-15T02:08:35;14.35;;;7.80;;
46845;SDS011;33947;46.804;134.252;2022-11-15T02:11:58;16.40;;;7.97;;
46845;SDS011;33947;46.804;134.252;2022-11-15T02:15:23;24.40;;;9.38;;
46845;SDS011;33947;46.804;134.252;2022-11-15T02:26:13;22.23;;;9.45;;
46845;SDS011;33947;46.804;134.252;2022-11-15T02:33:50;23.88;;;9.65;;
46845;SDS011;33947;46.804;134.252;2022-11-15T02:37:35;18.27;;;8.20;;
46845;SDS011;33947;46.804;134.252;2022-11-15T02:41:03;17.55;;;9.20;;
46845;SDS011;33947;46.804;134.252;2022-11-15T02:44:37;17.90;;;8.23;;
46845;SDS011;33947;46.804;134.252;2022-11-15T02:48:05;14.68;;;8.43;;
46845;SDS011;33947;46.804;134.252;2022-11-15T02:51:29;25.92;;;9.55;;
46845;SDS011;33947;46.804;134.252;2022-11-15T02:54:56;19.77;;;9.65;;
46845;SDS011;33947;46.804;134.252;2022-11-15T02:58:36;23.02;;;11.07;;
46845;SDS011;33947;46.804;134.252;2022-11-15T03:06:19;21.02;;;10.02;;
46845;SDS011;33947;46.804;134.252;2022-11-15T03:10:09;24.02;;;9.15;;
46845;SDS011;33947;46.804;134.252;2022-11-15T03:17:48;18.52;;;8.95;;
46845;SDS011;33947;46.804;134.252;2022-11-15T03:21:18;19.48;;;9.52;;
46845;SDS011;33947;46.804;134.252;2022-11-15T03:24:47;14.70;;;7.32;;
46845;SDS011;33947;46.804;134.252;2022-11-15T03:28:26;22.38;;;8.80;;
46845;SDS011;33947;46.804;134.252;2022-11-15T03:35:21;16.33;;;8.55;;
46845;SDS011;33947;46.804;134.252;2022-11-15T03:38:45;20.45;;;11.07;;
46845;SDS011;33947;46.804;134.252;2022-11-15T03:45:56;32.65;;;17.25;;
46845;SDS011;33947;46.804;134.252;2022-11-15T03:49:27;31.20;;;13.82;;
46845;SDS011;33947;46.804;134.252;2022-11-15T03:52:55;34.38;;;12.77;;
46845;SDS011;33947;46.804;134.252;2022-11-15T03:56:19;31.27;;;12.60;;
46845;SDS011;33947;46.804;134.252;2022-11-15T03:59:42;52.92;;;18.13;;
46845;SDS011;33947;46.804;134.252;2022-11-15T04:03:06;95.95;;;36.10;;
46845;SDS011;33947;46.804;134.252;2022-11-15T04:06:29;35.97;;;17.27;;
46845;SDS011;33947;46.804;134.252;2022-11-15T04:09:52;27.80;;;13.02;;
46845;SDS011;33947;46.804;134.252;2022-11-15T04:13:24;33.10;;;15.93;;
46845;SDS011;33947;46.804;134.252;2022-11-15T04:16:47;20.73;;;10.68;;
46845;SDS011;33947;46.804;134.252;2022-11-15T04:23:51;28.50;;;19.38;;
46845;SDS011;33947;46.804;134.252;2022-11-15T04:27:33;29.88;;;11.88;;
46845;SDS011;33947;46.804;134.252;2022-11-15T04:30:55;20.88;;;9.93;;
46845;SDS011;33947;46.804;134.252;2022-11-15T04:34:19;25.42;;;9.48;;
46845;SDS011;33947;46.804;134.252;2022-11-15T04:37:42;17.55;;;10.07;;
46845;SDS011;33947;46.804;134.252;2022-11-15T04:41:09;22.45;;;11.23;;
46845;SDS011;33947;46.804;134.252;2022-11-15T04:44:32;20.85;;;10.00;;
46845;SDS011;33947;46.804;134.252;2022-11-15T04:47:54;20.08;;;11.05;;
46845;SDS011;33947;46.804;134.252;2022-11-15T04:51:17;21.17;;;10.63;;
46845;SDS011;33947;46.804;134.252;2022-11-15T04:54:40;22.70;;;11.73;;
46845;SDS011;33947;46.804;134.252;2022-11-15T04:58:05;26.48;;;11.60;;
46845;SDS011;33947;46.804;134.252;2022-11-15T05:01:28;16.77;;;8.88;;
46845;SDS011;33947;46.804;134.252;2022-11-15T05:04:51;25.75;;;13.60;;
46845;SDS011;33947;46.804;134.252;2022-11-15T05:08:14;28.63;;;14.85;;
46845;SDS011;33947;46.804;134.252;2022-11-15T05:11:36;28.35;;;11.57;;
46845;SDS011;33947;46.804;134.252;2022-11-15T05:14:59;24.90;;;13.50;;
46845;SDS011;33947;46.804;134.252;2022-11-15T05:18:22;19.83;;;10.55;;
46845;SDS011;33947;46.804;134.252;2022-11-15T05:21:44;24.45;;;12.02;;
46845;SDS011;33947;46.804;134.252;2022-11-15T05:25:08;29.00;;;14.85;;
46845;SDS011;33947;46.804;134.252;2022-11-15T05:28:31;28.52;;;14.30;;
46845;SDS011;33947;46.804;134.252;2022-11-15T05:31:54;38.33;;;17.02;;
46845;SDS011;33947;46.804;134.252;2022-11-15T05:35:24;25.00;;;11.63;;
46845;SDS011;33947;46.804;134.252;2022-11-15T05:38:56;21.77;;;10.80;;
46845;SDS011;33947;46.804;134.252;2022-11-15T05:42:19;18.23;;;10.35;;
46845;SDS011;33947;46.804;134.252;2022-11-15T05:45:41;23.23;;;12.98;;
46845;SDS011;33947;46.804;134.252;2022-11-15T05:49:05;20.80;;;11.23;;
46845;SDS011;33947;46.804;134.252;2022-11-15T05:52:32;21.75;;;11.55;;
46845;SDS011;33947;46.804;134.252;2022-11-15T05:59:20;23.02;;;11.82;;
46845;SDS011;33947;46.804;134.252;2022-11-15T06:02:43;26.20;;;12.35;;
46845;SDS011;33947;46.804;134.252;2022-11-15T06:06:06;16.27;;;9.30;;
46845;SDS011;33947;46.804;134.252;2022-11-15T06:09:36;25.27;;;12.18;;
46845;SDS011;33947;46.804;134.252;2022-11-15T06:12:59;20.08;;;11.60;;
46845;SDS011;33947;46.804;134.252;2022-11-15T06:16:23;22.23;;;10.90;;
46845;SDS011;33947;46.804;134.252;2022-11-15T06:19:46;46.55;;;22.65;;
46845;SDS011;33947;46.804;134.252;2022-11-15T06:23:09;110.10;;;35.63;;
46845;SDS011;33947;46.804;134.252;2022-11-15T06:26:32;27.33;;;13.07;;
46845;SDS011;33947;46.804;134.252;2022-11-15T06:29:55;24.35;;;12.13;;
46845;SDS011;33947;46.804;134.252;2022-11-15T06:33:17;26.08;;;11.10;;
46845;SDS011;33947;46.804;134.252;2022-11-15T06:36:43;21.63;;;11.10;;
46845;SDS011;33947;46.804;134.252;2022-11-15T06:40:06;23.70;;;12.77;;
46845;SDS011;33947;46.804;134.252;2022-11-15T06:43:31;28.63;;;14.10;;
46845;SDS011;33947;46.804;134.252;2022-11-15T06:46:55;32.55;;;13.88;;
46845;SDS011;33947;46.804;134.252;2022-11-15T06:50:19;22.50;;;12.30;;
46845;SDS011;33947;46.804;134.252;2022-11-15T06:53:42;25.35;;;11.35;;
46845;SDS011;33947;46.804;134.252;2022-11-15T06:57:05;21.55;;;11.95;;
46845;SDS011;33947;46.804;134.252;2022-11-15T07:00:27;22.88;;;10.68;;
46845;SDS011;33947;46.804;134.252;2022-11-15T07:03:50;20.38;;;10.45;;
46845;SDS011;33947;46.804;134.252;2022-11-15T07:07:12;22.23;;;10.50;;
46845;SDS011;33947;46.804;134.252;2022-11-15T07:10:35;20.88;;;10.20;;
46845;SDS011;33947;46.804;134.252;2022-11-15T07:13:58;24.25;;;11.75;;
46845;SDS011;33947;46.804;134.252;2022-11-15T07:17:22;20.77;;;10.93;;
46845;SDS011;33947;46.804;134.252;2022-11-15T07:20:45;33.10;;;15.18;;
46845;SDS011;33947;46.804;134.252;2022-11-15T07:24:07;25.77;;;13.23;;
46845;SDS011;33947;46.804;134.252;2022-11-15T07:27:30;26.30;;;11.68;;
46845;SDS011;33947;46.804;134.252;2022-11-15T07:30:55;25.50;;;13.10;;
46845;SDS011;33947;46.804;134.252;2022-11-15T07:34:17;21.98;;;12.05;;
46845;SDS011;33947;46.804;134.252;2022-11-15T07:37:40;29.35;;;14.32;;
46845;SDS011;33947;46.804;134.252;2022-11-15T07:41:03;21.02;;;10.75;;
46845;SDS011;33947;46.804;134.252;2022-11-15T07:44:27;20.13;;;11.18;;
46845;SDS011;33947;46.804;134.252;2022-11-15T07:47:50;31.52;;;13.25;;
46845;SDS011;33947;46.804;134.252;2022-11-15T07:51:14;29.42;;;12.95;;
46845;SDS011;33947;46.804;134.252;2022-11-15T07:54:37;25.13;;;12.63;;
46845;SDS011;33947;46.804;134.252;2022-11-15T07:58:01;22.58;;;10.93;;
46845;SDS011;33947;46.804;134.252;2022-11-15T08:01:24;22.88;;;12.35;;
46845;SDS011;33947;46.804;134.252;2022-11-15T08:04:48;21.70;;;10.50;;
46845;SDS011;33947;46.804;134.252;2022-11-15T08:08:11;27.70;;;12.98;;
46845;SDS011;33947;46.804;134.252;2022-11-15T08:11:34;24.98;;;14.27;;
46845;SDS011;33947;46.804;134.252;2022-11-15T08:14:57;30.85;;;13.38;;
46845;SDS011;33947;46.804;134.252;2022-11-15T08:18:19;23.50;;;13.40;;
46845;SDS011;33947;46.804;134.252;2022-11-15T08:21:42;29.00;;;14.48;;
46845;SDS011;33947;46.804;134.252;2022-11-15T08:25:05;28.50;;;14.25;;
46845;SDS011;33947;46.804;134.252;2022-11-15T08:28:27;31.88;;;16.48;;
46845;SDS011;33947;46.804;134.252;2022-11-15T08:31:51;38.55;;;16.92;;
46845;SDS011;33947;46.804;134.252;2022-11-15T08:35:14;30.70;;;16.00;;
46845;SDS011;33947;46.804;134.252;2022-11-15T08:38:37;28.38;;;14.43;;
46845;SDS011;33947;46.804;134.252;2022-11-15T08:41:59;36.08;;;15.20;;
46845;SDS011;33947;46.804;134.252;2022-11-15T08:45:23;32.25;;;15.20;;
46845;SDS011;33947;46.804;134.252;2022-11-15T08:48:46;43.30;;;18.13;;
46845;SDS011;33947;46.804;134.252;2022-11-15T08:52:09;45.13;;;17.90;;
46845;SDS011;33947;46.804;134.252;2022-11-15T08:55:31;62.22;;;20.27;;
46845;SDS011;33947;46.804;134.252;2022-11-15T08:58:54;31.52;;;14.07;;
46845;SDS011;33947;46.804;134.252;2022-11-15T09:02:17;27.10;;;13.20;;
46845;SDS011;33947;46.804;134.252;2022-11-15T09:05:39;31.10;;;14.98;;
46845;SDS011;33947;46.804;134.252;2022-11-15T09:09:02;37.08;;;18.65;;
46845;SDS011;33947;46.804;134.252;2022-11-15T09:12:25;129.85;;;45.78;;
46845;SDS011;33947;46.804;134.252;2022-11-15T09:15:50;150.52;;;49.67;;
46845;SDS011;33947;46.804;134.252;2022-11-15T09:19:12;201.82;;;66.85;;
46845;SDS011;33947;46.804;134.252;2022-11-15T09:22:36;154.10;;;56.15;;
46845;SDS011;33947;46.804;134.252;2022-11-15T09:26:00;50.60;;;25.73;;
46845;SDS011;33947;46.804;134.252;2022-11-15T09:29:24;33.85;;;19.02;;
46845;SDS011;33947;46.804;134.252;2022-11-15T09:32:47;47.42;;;21.38;;
46845;SDS011;33947;46.804;134.252;2022-11-15T09:36:10;68.10;;;28.42;;
46845;SDS011;33947;46.804;134.252;2022-11-15T09:39:34;61.17;;;26.15;;
46845;SDS011;33947;46.804;134.252;2022-11-15T09:47:10;94.22;;;41.95;;
46845;SDS011;33947;46.804;134.252;2022-11-15T09:53:56;27.73;;;14.40;;
46845;SDS011;33947;46.804;134.252;2022-11-15T09:57:37;28.85;;;13.10;;
46845;SDS011;33947;46.804;134.252;2022-11-15T10:00:50;34.33;;;12.90;;
46845;SDS011;33947;46.804;134.252;2022-11-15T10:03:56;42.17;;;17.55;;
46845;SDS011;33947;46.804;134.252;2022-11-15T10:07:06;28.20;;;13.18;;
46845;SDS011;33947;46.804;134.252;2022-11-15T10:10:30;22.52;;;11.00;;
46845;SDS011;33947;46.804;134.252;2022-11-15T10:13:42;154.27;;;51.85;;
46845;SDS011;33947;46.804;134.252;2022-11-15T10:20:21;85.10;;;31.08;;
46845;SDS011;33947;46.804;134.252;2022-11-15T10:23:33;120.88;;;41.22;;
46845;SDS011;33947;46.804;134.252;2022-11-15T10:26:37;66.43;;;27.58;;
46845;SDS011;33947;46.804;134.252;2022-11-15T10:29:46;103.05;;;34.70;;
46845;SDS011;33947;46.804;134.252;2022-11-15T10:32:52;94.72;;;34.67;;
46845;SDS011;33947;46.804;134.252;2022-11-15T10:39:13;59.75;;;25.70;;
46845;SDS011;33947;46.804;134.252;2022-11-15T10:42:28;40.10;;;17.67;;
46845;SDS011;33947;46.804;134.252;2022-11-15T10:45:33;54.03;;;21.48;;
46845;SDS011;33947;46.804;134.252;2022-11-15T10:48:38;47.97;;;19.70;;
46845;SDS011;33947;46.804;134.252;2022-11-15T10:51:47;46.00;;;18.27;;
46845;SDS011;33947;46.804;134.252;2022-11-15T10:55:05;32.88;;;15.02;;
46845;SDS011;33947;46.804;134.252;2022-11-15T10:58:21;30.27;;;15.07;;
46845;SDS011;33947;46.804;134.252;2022-11-15T11:01:46;41.92;;;18.92;;
46845;SDS011;33947;46.804;134.252;2022-11-15T11:04:52;69.35;;;23.65;;
46845;SDS011;33947;46.804;134.252;2022-11-15T11:08:01;59.30;;;26.05;;
46845;SDS011;33947;46.804;134.252;2022-11-15T11:11:08;59.50;;;25.85;;
46845;SDS011;33947;46.804;134.252;2022-11-15T11:14:35;67.40;;;32.10;;
46845;SDS011;33947;46.804;134.252;2022-11-15T11:20:54;57.28;;;26.58;;
46845;SDS011;33947;46.804;134.252;2022-11-15T11:24:08;31.30;;;15.27;;
46845;SDS011;33947;46.804;134.252;2022-11-15T11:30:47;30.55;;;14.65;;
46845;SDS011;33947;46.804;134.252;2022-11-15T11:47:37;24.17;;;11.00;;
46845;SDS011;33947;46.804;134.252;2022-11-15T11:50:44;29.77;;;12.18;;
46845;SDS011;33947;46.804;134.252;2022-11-15T11:53:52;26.35;;;12.32;;
46845;SDS011;33947;46.804;134.252;2022-11-15T11:57:02;27.50;;;12.43;;
46845;SDS011;33947;46.804;134.252;2022-11-15T12:00:28;27.38;;;11.80;;
46845;SDS011;33947;46.804;134.252;2022-11-15T12:10:23;30.25;;;12.93;;
46845;SDS011;33947;46.804;134.252;2022-11-15T12:13:32;31.90;;;13.65;;
46845;SDS011;33947;46.804;134.252;2022-11-15T12:16:42;33.08;;;13.50;;
46845;SDS011;33947;46.804;134.252;2022-11-15T12:19:46;30.88;;;14.45;;
46845;SDS011;33947;46.804;134.252;2022-11-15T12:23:13;29.50;;;13.65;;
46845;SDS011;33947;46.804;134.252;2022-11-15T12:26:26;32.05;;;14.00;;
46845;SDS011;33947;46.804;134.252;2022-11-15T12:29:40;33.25;;;15.65;;
46845;SDS011;33947;46.804;134.252;2022-11-15T12:32:56;43.50;;;15.20;;
46845;SDS011;33947;46.804;134.252;2022-11-15T12:36:04;51.00;;;17.42;;
46845;SDS011;33947;46.804;134.252;2022-11-15T12:39:13;41.97;;;15.60;;
46845;SDS011;33947;46.804;134.252;2022-11-15T12:45:36;89.28;;;26.17;;
46845;SDS011;33947;46.804;134.252;2022-11-15T12:54:52;90.75;;;33.38;;
46845;SDS011;33947;46.804;134.252;2022-11-15T12:58:18;141.57;;;42.22;;
46845;SDS011;33947;46.804;134.252;2022-11-15T13:04:35;198.10;;;47.75;;
46845;SDS011;33947;46.804;134.252;2022-11-15T13:10:44;45.50;;;21.33;;
46845;SDS011;33947;46.804;134.252;2022-11-15T13:13:48;46.92;;;19.85;;
46845;SDS011;33947;46.804;134.252;2022-11-15T13:16:58;46.75;;;22.30;;
46845;SDS011;33947;46.804;134.252;2022-11-15T13:23:12;66.75;;;24.88;;
46845;SDS011;33947;46.804;134.252;2022-11-15T13:26:19;198.25;;;42.20;;
46845;SDS011;33947;46.804;134.252;2022-11-15T13:29:24;111.75;;;32.92;;
46845;SDS011;33947;46.804;134.252;2022-11-15T13:32:29;63.95;;;23.63;;
46845;SDS011;33947;46.804;134.252;2022-11-15T13:35:36;67.15;;;25.58;;
46845;SDS011;33947;46.804;134.252;2022-11-15T13:38:45;149.13;;;46.92;;
46845;SDS011;33947;46.804;134.252;2022-11-15T13:41:59;210.27;;;64.75;;
46845;SDS011;33947;46.804;134.252;2022-11-15T13:45:04;204.40;;;56.42;;
46845;SDS011;33947;46.804;134.252;2022-11-15T13:48:09;502.08;;;141.27;;
46845;SDS011;33947;46.804;134.252;2022-11-15T13:54:57;513.95;;;143.38;;
46845;SDS011;33947;46.804;134.252;2022-11-15T13:58:08;280.20;;;75.78;;
46845;SDS011;33947;46.804;134.252;2022-11-15T14:01:17;197.55;;;52.80;;
46845;SDS011;33947;46.804;134.252;2022-11-15T14:04:25;127.25;;;33.65;;
46845;SDS011;33947;46.804;134.252;2022-11-15T14:07:33;116.05;;;35.88;;
46845;SDS011;33947;46.804;134.252;2022-11-15T14:10:45;134.38;;;38.45;;
46845;SDS011;33947;46.804;134.252;2022-11-15T14:17:34;196.48;;;59.30;;
46845;SDS011;33947;46.804;134.252;2022-11-15T14:20:40;314.45;;;91.63;;
46845;SDS011;33947;46.804;134.252;2022-11-15T14:23:45;215.95;;;68.30;;
46845;SDS011;33947;46.804;134.252;2022-11-15T14:26:50;88.20;;;32.70;;
46845;SDS011;33947;46.804;134.252;2022-11-15T14:29:54;65.13;;;24.55;;
46845;SDS011;33947;46.804;134.252;2022-11-15T14:32:59;44.15;;;17.02;;
46845;SDS011;33947;46.804;134.252;2022-11-15T14:36:05;37.15;;;14.07;;
46845;SDS011;33947;46.804;134.252;2022-11-15T14:39:15;39.95;;;13.45;;
46845;SDS011;33947;46.804;134.252;2022-11-15T14:42:21;46.42;;;15.15;;
46845;SDS011;33947;46.804;134.252;2022-11-15T14:45:26;101.60;;;26.08;;
46845;SDS011;33947;46.804;134.252;2022-11-15T14:48:34;132.85;;;31.65;;
46845;SDS011;33947;46.804;134.252;2022-11-15T14:51:39;136.77;;;33.15;;
46845;SDS011;33947;46.804;134.252;2022-11-15T14:54:45;84.03;;;23.42;;
46845;SDS011;33947;46.804;134.252;2022-11-15T14:57:50;113.65;;;30.10;;
46845;SDS011;33947;46.804;134.252;2022-11-15T15:00:55;90.85;;;26.20;;
46845;SDS011;33947;46.804;134.252;2022-11-15T15:04:00;74.20;;;25.65;;
46845;SDS011;33947;46.804;134.252;2022-11-15T15:07:04;80.00;;;26.95;;
46845;SDS011;33947;46.804;134.252;2022-11-15T15:10:09;81.18;;;27.58;;
46845;SDS011;33947;46.804;134.252;2022-11-15T15:13:33;71.70;;;24.10;;
46845;SDS011;33947;46.804;134.252;2022-11-15T15:16:37;79.28;;;26.45;;
46845;SDS011;33947;46.804;134.252;2022-11-15T15:19:42;80.03;;;27.67;;
46845;SDS011;33947;46.804;134.252;2022-11-15T15:22:46;82.15;;;28.60;;
46845;SDS011;33947;46.804;134.252;2022-11-15T15:25:51;68.17;;;23.67;;
46845;SDS011;33947;46.804;134.252;2022-11-15T15:28:56;59.15;;;23.13;;
46845;SDS011;33947;46.804;134.252;2022-11-15T15:32:01;55.47;;;21.08;;
46845;SDS011;33947;46.804;134.252;2022-11-15T15:35:05;48.53;;;20.90;;
46845;SDS011;33947;46.804;134.252;2022-11-15T15:38:15;65.80;;;23.95;;
46845;SDS011;33947;46.804;134.252;2022-11-15T15:41:20;52.88;;;22.10;;
46845;SDS011;33947;46.804;134.252;2022-11-15T15:44:26;47.45;;;20.27;;
46845;SDS011;33947;46.804;134.252;2022-11-15T15:47:30;49.63;;;18.90;;
46845;SDS011;33947;46.804;134.252;2022-11-15T15:50:35;56.40;;;22.85;;
46845;SDS011;33947;46.804;134.252;2022-11-15T15:53:40;49.37;;;20.83;;
46845;SDS011;33947;46.804;134.252;2022-11-15T15:56:45;49.80;;;20.25;;
46845;SDS011;33947;46.804;134.252;2022-11-15T15:59:56;43.05;;;16.63;;
46845;SDS011;33947;46.804;134.252;2022-11-15T16:03:00;189.65;;;63.80;;
46845;SDS011;33947;46.804;134.252;2022-11-15T16:06:22;53.90;;;22.85;;
46845;SDS011;33947;46.804;134.252;2022-11-15T16:09:39;39.92;;;16.27;;
46845;SDS011;33947;46.804;134.252;2022-11-15T16:13:04;51.38;;;20.23;;
46845;SDS011;33947;46.804;134.252;2022-11-15T16:16:09;47.67;;;19.38;;
46845;SDS011;33947;46.804;134.252;2022-11-15T16:19:18;41.10;;;15.95;;
46845;SDS011;33947;46.804;134.252;2022-11-15T16:22:22;35.58;;;16.73;;
46845;SDS011;33947;46.804;134.252;2022-11-15T16:25:27;36.67;;;14.25;;
46845;SDS011;33947;46.804;134.252;2022-11-15T16:28:32;34.00;;;15.60;;
46845;SDS011;33947;46.804;134.252;2022-11-15T16:31:37;32.60;;;15.15;;
46845;SDS011;33947;46.804;134.252;2022-11-15T16:34:41;42.45;;;16.20;;
46845;SDS011;33947;46.804;134.252;2022-11-15T16:37:50;39.67;;;16.83;;
46845;SDS011;33947;46.804;134.252;2022-11-15T16:40:54;48.70;;;19.67;;
46845;SDS011;33947;46.804;134.252;2022-11-15T16:43:59;45.55;;;21.63;;
46845;SDS011;33947;46.804;134.252;2022-11-15T16:47:04;52.72;;;22.08;;
46845;SDS011;33947;46.804;134.252;2022-11-15T16:50:15;40.25;;;19.63;;
46845;SDS011;33947;46.804;134.252;2022-11-15T16:53:28;45.03;;;20.40;;
46845;SDS011;33947;46.804;134.252;2022-11-15T16:56:32;40.75;;;19.35;;
46845;SDS011;33947;46.804;134.252;2022-11-15T16:59:37;39.83;;;16.80;;
46845;SDS011;33947;46.804;134.252;2022-11-15T17:02:42;42.10;;;18.45;;
46845;SDS011;33947;46.804;134.252;2022-11-15T17:05:48;41.47;;;19.13;;
46845;SDS011;33947;46.804;134.252;2022-11-15T17:08:53;48.30;;;19.45;;
46845;SDS011;33947;46.804;134.252;2022-11-15T17:11:58;34.22;;;15.68;;
46845;SDS011;33947;46.804;134.252;2022-11-15T17:15:03;33.30;;;13.30;;
46845;SDS011;33947;46.804;134.252;2022-11-15T17:18:11;23.20;;;11.63;;
46845;SDS011;33947;46.804;134.252;2022-11-15T17:21:18;25.95;;;11.85;;
46845;SDS011;33947;46.804;134.252;2022-11-15T17:24:24;27.58;;;12.45;;
46845;SDS011;33947;46.804;134.252;2022-11-15T17:27:30;24.42;;;10.88;;
46845;SDS011;33947;46.804;134.252;2022-11-15T17:30:35;28.17;;;11.48;;
46845;SDS011;33947;46.804;134.252;2022-11-15T17:33:39;28.33;;;11.80;;
46845;SDS011;33947;46.804;134.252;2022-11-15T17:36:44;25.70;;;11.13;;
46845;SDS011;33947;46.804;134.252;2022-11-15T17:39:48;22.13;;;10.80;;
46845;SDS011;33947;46.804;134.252;2022-11-15T17:42:54;18.77;;;9.73;;
46845;SDS011;33947;46.804;134.252;2022-11-15T17:49:07;33.78;;;14.55;;
46845;SDS011;33947;46.804;134.252;2022-11-15T17:52:11;31.50;;;13.20;;
46845;SDS011;33947;46.804;134.252;2022-11-15T17:55:15;31.38;;;13.15;;
46845;SDS011;33947;46.804;134.252;2022-11-15T17:58:21;23.30;;;11.32;;
46845;SDS011;33947;46.804;134.252;2022-11-15T18:01:27;28.30;;;12.57;;
46845;SDS011;33947;46.804;134.252;2022-11-15T18:04:33;27.50;;;13.98;;
46845;SDS011;33947;46.804;134.252;2022-11-15T18:07:38;29.52;;;13.27;;
46845;SDS011;33947;46.804;134.252;2022-11-15T18:10:42;29.77;;;14.77;;
46845;SDS011;33947;46.804;134.252;2022-11-15T18:13:48;24.50;;;13.02;;
46845;SDS011;33947;46.804;134.252;2022-11-15T18:16:55;29.05;;;14.05;;
46845;SDS011;33947;46.804;134.252;2022-11-15T18:19:59;32.15;;;14.73;;
46845;SDS011;33947;46.804;134.252;2022-11-15T18:23:04;34.67;;;16.58;;
46845;SDS011;33947;46.804;134.252;2022-11-15T18:26:10;37.80;;;17.95;;
46845;SDS011;33947;46.804;134.252;2022-11-15T18:29:18;56.83;;;23.52;;
46845;SDS011;33947;46.804;134.252;2022-11-15T18:32:23;35.35;;;16.67;;
46845;SDS011;33947;46.804;134.252;2022-11-15T18:35:28;34.60;;;16.53;;
46845;SDS011;33947;46.804;134.252;2022-11-15T18:38:32;36.03;;;16.98;;
46845;SDS011;33947;46.804;134.252;2022-11-15T18:41:37;29.67;;;14.03;;
46845;SDS011;33947;46.804;134.252;2022-11-15T18:44:41;27.92;;;13.25;;
46845;SDS011;33947;46.804;134.252;2022-11-15T18:47:46;31.40;;;14.93;;
46845;SDS011;33947;46.804;134.252;2022-11-15T18:50:50;31.05;;;14.23;;
46845;SDS011;33947;46.804;134.252;2022-11-15T18:53:56;30.75;;;12.63;;
46845;SDS011;33947;46.804;134.252;2022-11-15T18:57:03;35.42;;;14.73;;
46845;SDS011;33947;46.804;134.252;2022-11-15T19:00:07;27.83;;;14.50;;
46845;SDS011;33947;46.804;134.252;2022-11-15T19:03:13;38.55;;;17.10;;
46845;SDS011;33947;46.804;134.252;2022-11-15T19:06:25;35.63;;;14.88;;
46845;SDS011;33947;46.804;134.252;2022-11-15T19:09:32;39.65;;;17.35;;
46845;SDS011;33947;46.804;134.252;2022-11-15T19:12:36;40.85;;;17.40;;
46845;SDS011;33947;46.804;134.252;2022-11-15T19:15:41;39.65;;;20.38;;
46845;SDS011;33947;46.804;134.252;2022-11-15T19:18:45;43.15;;;16.88;;
46845;SDS011;33947;46.804;134.252;2022-11-15T19:21:50;42.42;;;18.38;;
46845;SDS011;33947;46.804;134.252;2022-11-15T19:24:55;54.50;;;22.00;;
46845;SDS011;33947;46.804;134.252;2022-11-15T19:28:00;33.10;;;15.38;;
46845;SDS011;33947;46.804;134.252;2022-11-15T19:31:07;55.50;;;22.83;;
46845;SDS011;33947;46.804;134.252;2022-11-15T19:34:16;44.20;;;19.02;;
46845;SDS011;33947;46.804;134.252;2022-11-15T19:37:21;45.20;;;20.10;;
46845;SDS011;33947;46.804;134.252;2022-11-15T19:40:25;40.97;;;17.95;;
46845;SDS011;33947;46.804;134.252;2022-11-15T19:43:30;42.65;;;17.58;;
46845;SDS011;33947;46.804;134.252;2022-11-15T19:46:35;38.45;;;19.27;;
46845;SDS011;33947;46.804;134.252;2022-11-15T19:49:41;54.45;;;22.05;;
46845;SDS011;33947;46.804;134.252;2022-11-15T19:52:45;50.87;;;22.53;;
46845;SDS011;33947;46.804;134.252;2022-11-15T19:55:54;57.35;;;24.85;;
46845;SDS011;33947;46.804;134.252;2022-11-15T19:58:59;44.03;;;20.48;;
46845;SDS011;33947;46.804;134.252;2022-11-15T20:05:09;45.33;;;18.52;;
46845;SDS011;33947;46.804;134.252;2022-11-15T20:08:19;46.53;;;20.75;;
46845;SDS011;33947;46.804;134.252;2022-11-15T20:11:24;50.60;;;23.35;;
46845;SDS011;33947;46.804;134.252;2022-11-15T20:17:34;41.72;;;19.33;;
46845;SDS011;33947;46.804;134.252;2022-11-15T20:20:38;42.08;;;18.05;;
46845;SDS011;33947;46.804;134.252;2022-11-15T20:23:44;39.95;;;19.27;;
46845;SDS011;33947;46.804;134.252;2022-11-15T20:26:49;47.70;;;21.30;;